PWSweather.com
Personal Weather Stations
Station Observations
K4FB1
Clubhouse Heritage, Lakeland, FL 33812

Clubhouse HeritageLakeland, FL 33812

Lat: 27.969224, Lon: -81.897769

Elevation: 145

Station Type: Davis Vantage Pro2

http://www.ClubhouseWX.com

High Low Average
Temperature 77.4°F25.2°C 50.1°F10.1°C 67.9°F19.9°C
Dew Point 69.6°F20.9°C 47.9°F8.8°C 61.2°F16.2°C
Winds 7.0 mph 11.3 kmh Calm Calm 3.0 mph SSW4.8 kmh SSW
Wind Gusts 19.0 mph30.6 kmh -- 8.0 mph12.9 kmh
Humidity 93% 51% 80%
Pressure 30.01 in1016.3 mb 29.71 in1006.1 mb -
Precipitation 0.27 in6.9 mm - -
Hour Temp Dew Point Humidity Winds Wind Gusts Pressure Precip Precip Rate Daily Precip Total
12:00 AM 70.3°F21.3°C 67.5°F19.7°C 91% 2.0 mph SSW3.2 kmh SSW 7.0 mph11.3 kmh 29.79 in1008.8 mb 0.00 in0.0 mm 0.00 in0.0 mm 0.00 in0.0 mm
12:05 AM 70.3°F21.3°C 67.5°F19.7°C 91% 3.0 mph SSW4.8 kmh SSW 10.0 mph16.1 kmh 29.79 in1008.8 mb 0.00 in0.0 mm 0.00 in0.0 mm 0.00 in0.0 mm
12:10 AM 70.4°F21.3°C 68.0°F20.0°C 92% 4.0 mph S6.4 kmh S 10.0 mph16.1 kmh 29.80 in1009.1 mb 0.00 in0.0 mm 0.00 in0.0 mm 0.00 in0.0 mm
12:15 AM 70.5°F21.4°C 68.1°F20.1°C 92% 3.0 mph SSW4.8 kmh SSW 9.0 mph14.5 kmh 29.80 in1009.1 mb 0.00 in0.0 mm 0.00 in0.0 mm 0.00 in0.0 mm
12:20 AM 70.5°F21.4°C 68.1°F20.1°C 92% 3.0 mph SSW4.8 kmh SSW 8.0 mph12.9 kmh 29.79 in1008.8 mb 0.00 in0.0 mm 0.00 in0.0 mm 0.00 in0.0 mm
12:25 AM 70.6°F21.4°C 68.2°F20.1°C 92% 3.0 mph SSW4.8 kmh SSW 8.0 mph12.9 kmh 29.79 in1008.8 mb 0.00 in0.0 mm 0.00 in0.0 mm 0.00 in0.0 mm
12:30 AM 70.6°F21.4°C 68.2°F20.1°C 92% 3.0 mph SSW4.8 kmh SSW 8.0 mph12.9 kmh 29.79 in1008.8 mb 0.00 in0.0 mm 0.00 in0.0 mm 0.00 in0.0 mm
12:35 AM 70.6°F21.4°C 68.2°F20.1°C 92% 2.0 mph SSW3.2 kmh SSW 7.0 mph11.3 kmh 29.79 in1008.8 mb 0.00 in0.0 mm 0.00 in0.0 mm 0.00 in0.0 mm
12:40 AM 70.6°F21.4°C 68.2°F20.1°C 92% 2.0 mph SSW3.2 kmh SSW 7.0 mph11.3 kmh 29.79 in1008.8 mb 0.00 in0.0 mm 0.00 in0.0 mm 0.00 in0.0 mm
12:45 AM 70.6°F21.4°C 68.2°F20.1°C 92% 3.0 mph SSW4.8 kmh SSW 8.0 mph12.9 kmh 29.79 in1008.8 mb 0.00 in0.0 mm 0.00 in0.0 mm 0.00 in0.0 mm
12:50 AM 70.7°F21.5°C 68.3°F20.2°C 92% 4.0 mph S6.4 kmh S 9.0 mph14.5 kmh 29.79 in1008.8 mb 0.00 in0.0 mm 0.00 in0.0 mm 0.00 in0.0 mm
12:55 AM 70.7°F21.5°C 68.3°F20.2°C 92% 4.0 mph S6.4 kmh S 9.0 mph14.5 kmh 29.79 in1008.8 mb 0.00 in0.0 mm 0.00 in0.0 mm 0.00 in0.0 mm
01:00 AM 70.6°F21.4°C 68.2°F20.1°C 92% 4.0 mph S6.4 kmh S 9.0 mph14.5 kmh 29.79 in1008.8 mb 0.00 in0.0 mm 0.00 in0.0 mm 0.00 in0.0 mm
01:05 AM 70.7°F21.5°C 68.3°F20.2°C 92% 4.0 mph S6.4 kmh S 10.0 mph16.1 kmh 29.79 in1008.8 mb 0.00 in0.0 mm 0.00 in0.0 mm 0.00 in0.0 mm
01:10 AM 70.7°F21.5°C 68.3°F20.2°C 92% 5.0 mph S8.0 kmh S 10.0 mph16.1 kmh 29.79 in1008.8 mb 0.00 in0.0 mm 0.00 in0.0 mm 0.00 in0.0 mm
01:15 AM 70.6°F21.4°C 68.2°F20.1°C 92% 4.0 mph S6.4 kmh S 7.0 mph11.3 kmh 29.78 in1008.5 mb 0.00 in0.0 mm 0.00 in0.0 mm 0.00 in0.0 mm
01:20 AM 70.6°F21.4°C 68.2°F20.1°C 92% 3.0 mph S4.8 kmh S 9.0 mph14.5 kmh 29.78 in1008.5 mb 0.00 in0.0 mm 0.00 in0.0 mm 0.00 in0.0 mm
01:25 AM 70.7°F21.5°C 68.3°F20.2°C 92% 4.0 mph S6.4 kmh S 9.0 mph14.5 kmh 29.79 in1008.8 mb 0.00 in0.0 mm 0.00 in0.0 mm 0.00 in0.0 mm
01:30 AM 70.7°F21.5°C 68.3°F20.2°C 92% 3.0 mph S4.8 kmh S 9.0 mph14.5 kmh 29.79 in1008.8 mb 0.00 in0.0 mm 0.00 in0.0 mm 0.00 in0.0 mm
01:35 AM 70.8°F21.6°C 68.4°F20.2°C 92% 3.0 mph S4.8 kmh S 9.0 mph14.5 kmh 29.79 in1008.8 mb 0.00 in0.0 mm 0.00 in0.0 mm 0.00 in0.0 mm
01:40 AM 70.8°F21.6°C 68.4°F20.2°C 92% 3.0 mph S4.8 kmh S 9.0 mph14.5 kmh 29.79 in1008.8 mb 0.00 in0.0 mm 0.00 in0.0 mm 0.00 in0.0 mm
01:45 AM 70.9°F21.6°C 68.5°F20.3°C 92% 2.0 mph SSW3.2 kmh SSW 5.0 mph8.0 kmh 29.78 in1008.5 mb 0.00 in0.0 mm 0.00 in0.0 mm 0.00 in0.0 mm
01:50 AM 71.0°F21.7°C 68.6°F20.3°C 92% 3.0 mph S4.8 kmh S 9.0 mph14.5 kmh 29.78 in1008.5 mb 0.00 in0.0 mm 0.00 in0.0 mm 0.00 in0.0 mm
01:55 AM 71.1°F21.7°C 68.7°F20.4°C 92% 4.0 mph S6.4 kmh S 9.0 mph14.5 kmh 29.78 in1008.5 mb 0.00 in0.0 mm 0.00 in0.0 mm 0.00 in0.0 mm
02:00 AM 71.2°F21.8°C 68.8°F20.4°C 92% 4.0 mph S6.4 kmh S 9.0 mph14.5 kmh 29.77 in1008.1 mb 0.00 in0.0 mm 0.00 in0.0 mm 0.00 in0.0 mm
02:05 AM 71.2°F21.8°C 68.8°F20.4°C 92% 4.0 mph S6.4 kmh S 9.0 mph14.5 kmh 29.77 in1008.1 mb 0.00 in0.0 mm 0.00 in0.0 mm 0.00 in0.0 mm
02:10 AM 71.3°F21.8°C 68.9°F20.5°C 92% 4.0 mph S6.4 kmh S 8.0 mph12.9 kmh 29.77 in1008.1 mb 0.00 in0.0 mm 0.00 in0.0 mm 0.00 in0.0 mm
02:15 AM 71.3°F21.8°C 68.9°F20.5°C 92% 4.0 mph S6.4 kmh S 9.0 mph14.5 kmh 29.76 in1007.8 mb 0.00 in0.0 mm 0.00 in0.0 mm 0.00 in0.0 mm
02:20 AM 71.3°F21.8°C 68.9°F20.5°C 92% 4.0 mph S6.4 kmh S 9.0 mph14.5 kmh 29.75 in1007.5 mb 0.00 in0.0 mm 0.00 in0.0 mm 0.00 in0.0 mm
02:25 AM 71.4°F21.9°C 69.0°F20.6°C 92% 4.0 mph S6.4 kmh S 8.0 mph12.9 kmh 29.75 in1007.5 mb 0.00 in0.0 mm 0.00 in0.0 mm 0.00 in0.0 mm
02:30 AM 71.5°F21.9°C 69.1°F20.6°C 92% 4.0 mph S6.4 kmh S 10.0 mph16.1 kmh 29.75 in1007.5 mb 0.00 in0.0 mm 0.00 in0.0 mm 0.00 in0.0 mm
02:35 AM 71.6°F22.0°C 69.2°F20.7°C 92% 5.0 mph S8.0 kmh S 11.0 mph17.7 kmh 29.75 in1007.5 mb 0.00 in0.0 mm 0.00 in0.0 mm 0.00 in0.0 mm
02:40 AM 71.6°F22.0°C 69.2°F20.7°C 92% 5.0 mph S8.0 kmh S 11.0 mph17.7 kmh 29.74 in1007.1 mb 0.00 in0.0 mm 0.00 in0.0 mm 0.00 in0.0 mm
02:45 AM 71.7°F22.1°C 69.3°F20.7°C 92% 6.0 mph S9.7 kmh S 11.0 mph17.7 kmh 29.73 in1006.8 mb 0.00 in0.0 mm 0.00 in0.0 mm 0.00 in0.0 mm
02:50 AM 71.7°F22.1°C 69.3°F20.7°C 92% 6.0 mph S9.7 kmh S 13.0 mph20.9 kmh 29.74 in1007.1 mb 0.00 in0.0 mm 0.00 in0.0 mm 0.00 in0.0 mm
02:55 AM 71.8°F22.1°C 69.3°F20.7°C 92% 6.0 mph S9.7 kmh S 15.0 mph24.1 kmh 29.74 in1007.1 mb 0.00 in0.0 mm 0.00 in0.0 mm 0.00 in0.0 mm
03:00 AM 71.8°F22.1°C 69.3°F20.7°C 92% 6.0 mph S9.7 kmh S 15.0 mph24.1 kmh 29.75 in1007.5 mb 0.00 in0.0 mm 0.00 in0.0 mm 0.00 in0.0 mm
03:05 AM 71.8°F22.1°C 69.3°F20.7°C 92% 5.0 mph S8.0 kmh S 11.0 mph17.7 kmh 29.75 in1007.5 mb 0.00 in0.0 mm 0.00 in0.0 mm 0.00 in0.0 mm
03:10 AM 71.9°F22.2°C 69.4°F20.8°C 92% 6.0 mph S9.7 kmh S 14.0 mph22.5 kmh 29.74 in1007.1 mb 0.00 in0.0 mm 0.00 in0.0 mm 0.00 in0.0 mm
03:15 AM 71.8°F22.1°C 69.3°F20.7°C 92% 7.0 mph S11.3 kmh S 14.0 mph22.5 kmh 29.75 in1007.5 mb 0.00 in0.0 mm 0.00 in0.0 mm 0.00 in0.0 mm
03:20 AM 71.9°F22.2°C 69.4°F20.8°C 92% 6.0 mph S9.7 kmh S 12.0 mph19.3 kmh 29.75 in1007.5 mb 0.00 in0.0 mm 0.00 in0.0 mm 0.00 in0.0 mm
03:25 AM 72.0°F22.2°C 69.5°F20.8°C 92% 6.0 mph S9.7 kmh S 12.0 mph19.3 kmh 29.75 in1007.5 mb 0.00 in0.0 mm 0.00 in0.0 mm 0.00 in0.0 mm
03:30 AM 72.0°F22.2°C 69.5°F20.8°C 92% 5.0 mph SSW8.0 kmh SSW 12.0 mph19.3 kmh 29.75 in1007.5 mb 0.00 in0.0 mm 0.00 in0.0 mm 0.00 in0.0 mm
03:35 AM 72.0°F22.2°C 69.5°F20.8°C 92% 4.0 mph S6.4 kmh S 12.0 mph19.3 kmh 29.75 in1007.5 mb 0.00 in0.0 mm 0.00 in0.0 mm 0.00 in0.0 mm
03:40 AM 71.9°F22.2°C 69.1°F20.6°C 91% 4.0 mph S6.4 kmh S 12.0 mph19.3 kmh 29.75 in1007.5 mb 0.00 in0.0 mm 0.00 in0.0 mm 0.00 in0.0 mm
03:45 AM 72.1°F22.3°C 69.3°F20.7°C 91% 5.0 mph S8.0 kmh S 12.0 mph19.3 kmh 29.75 in1007.5 mb 0.00 in0.0 mm 0.00 in0.0 mm 0.00 in0.0 mm
03:50 AM 72.0°F22.2°C 69.2°F20.7°C 91% 5.0 mph S8.0 kmh S 10.0 mph16.1 kmh 29.75 in1007.5 mb 0.00 in0.0 mm 0.00 in0.0 mm 0.00 in0.0 mm
03:55 AM 72.1°F22.3°C 69.3°F20.7°C 91% 5.0 mph S8.0 kmh S 12.0 mph19.3 kmh 29.75 in1007.5 mb 0.00 in0.0 mm 0.00 in0.0 mm 0.00 in0.0 mm
04:00 AM 72.1°F22.3°C 69.3°F20.7°C 91% 5.0 mph S8.0 kmh S 12.0 mph19.3 kmh 29.74 in1007.1 mb 0.00 in0.0 mm 0.00 in0.0 mm 0.00 in0.0 mm
04:05 AM 72.1°F22.3°C 69.3°F20.7°C 91% 5.0 mph S8.0 kmh S 11.0 mph17.7 kmh 29.74 in1007.1 mb 0.00 in0.0 mm 0.00 in0.0 mm 0.00 in0.0 mm
04:10 AM 72.1°F22.3°C 69.3°F20.7°C 91% 5.0 mph S8.0 kmh S 12.0 mph19.3 kmh 29.74 in1007.1 mb 0.00 in0.0 mm 0.00 in0.0 mm 0.00 in0.0 mm
04:15 AM 72.1°F22.3°C 69.3°F20.7°C 91% 5.0 mph S8.0 kmh S 15.0 mph24.1 kmh 29.74 in1007.1 mb 0.00 in0.0 mm 0.00 in0.0 mm 0.00 in0.0 mm
04:20 AM 72.1°F22.3°C 69.3°F20.7°C 91% 5.0 mph S8.0 kmh S 15.0 mph24.1 kmh 29.74 in1007.1 mb 0.00 in0.0 mm 0.00 in0.0 mm 0.00 in0.0 mm
04:25 AM 72.1°F22.3°C 69.3°F20.7°C 91% 6.0 mph S9.7 kmh S 12.0 mph19.3 kmh 29.74 in1007.1 mb 0.00 in0.0 mm 0.00 in0.0 mm 0.00 in0.0 mm
04:30 AM 72.1°F22.3°C 69.3°F20.7°C 91% 6.0 mph S9.7 kmh S 14.0 mph22.5 kmh 29.74 in1007.1 mb 0.00 in0.0 mm 0.00 in0.0 mm 0.00 in0.0 mm
04:35 AM 72.0°F22.2°C 69.2°F20.7°C 91% 6.0 mph S9.7 kmh S 14.0 mph22.5 kmh 29.74 in1007.1 mb 0.00 in0.0 mm 0.00 in0.0 mm 0.00 in0.0 mm
04:40 AM 72.0°F22.2°C 69.2°F20.7°C 91% 5.0 mph S8.0 kmh S 14.0 mph22.5 kmh 29.74 in1007.1 mb 0.00 in0.0 mm 0.00 in0.0 mm 0.00 in0.0 mm
04:45 AM 71.9°F22.2°C 69.1°F20.6°C 91% 5.0 mph S8.0 kmh S 12.0 mph19.3 kmh 29.74 in1007.1 mb 0.00 in0.0 mm 0.00 in0.0 mm 0.00 in0.0 mm
04:50 AM 71.9°F22.2°C 69.1°F20.6°C 91% 4.0 mph S6.4 kmh S 10.0 mph16.1 kmh 29.74 in1007.1 mb 0.00 in0.0 mm 0.00 in0.0 mm 0.00 in0.0 mm
04:55 AM 71.9°F22.2°C 69.1°F20.6°C 91% 5.0 mph S8.0 kmh S 14.0 mph22.5 kmh 29.74 in1007.1 mb 0.00 in0.0 mm 0.00 in0.0 mm 0.00 in0.0 mm
05:00 AM 71.9°F22.2°C 69.1°F20.6°C 91% 5.0 mph S8.0 kmh S 14.0 mph22.5 kmh 29.73 in1006.8 mb 0.00 in0.0 mm 0.00 in0.0 mm 0.00 in0.0 mm
05:05 AM 72.0°F22.2°C 69.2°F20.7°C 91% 5.0 mph S8.0 kmh S 9.0 mph14.5 kmh 29.73 in1006.8 mb 0.00 in0.0 mm 0.00 in0.0 mm 0.00 in0.0 mm
05:10 AM 72.0°F22.2°C 69.2°F20.7°C 91% 4.0 mph S6.4 kmh S 12.0 mph19.3 kmh 29.72 in1006.4 mb 0.00 in0.0 mm 0.00 in0.0 mm 0.00 in0.0 mm
05:15 AM 72.1°F22.3°C 69.3°F20.7°C 91% 4.0 mph S6.4 kmh S 12.0 mph19.3 kmh 29.72 in1006.4 mb 0.00 in0.0 mm 0.00 in0.0 mm 0.00 in0.0 mm
05:20 AM 72.0°F22.2°C 69.2°F20.7°C 91% 3.0 mph S4.8 kmh S 9.0 mph14.5 kmh 29.73 in1006.8 mb 0.00 in0.0 mm 0.00 in0.0 mm 0.00 in0.0 mm
05:25 AM 72.0°F22.2°C 69.2°F20.7°C 91% 3.0 mph SSW4.8 kmh SSW 10.0 mph16.1 kmh 29.73 in1006.8 mb 0.00 in0.0 mm 0.00 in0.0 mm 0.00 in0.0 mm
05:30 AM 72.0°F22.2°C 69.2°F20.7°C 91% 4.0 mph S6.4 kmh S 10.0 mph16.1 kmh 29.73 in1006.8 mb 0.00 in0.0 mm 0.00 in0.0 mm 0.00 in0.0 mm
05:35 AM 72.1°F22.3°C 69.3°F20.7°C 91% 4.0 mph S6.4 kmh S 11.0 mph17.7 kmh 29.73 in1006.8 mb 0.00 in0.0 mm 0.00 in0.0 mm 0.00 in0.0 mm
05:40 AM 72.0°F22.2°C 69.2°F20.7°C 91% 5.0 mph S8.0 kmh S 14.0 mph22.5 kmh 29.73 in1006.8 mb 0.00 in0.0 mm 0.00 in0.0 mm 0.00 in0.0 mm
05:45 AM 72.1°F22.3°C 69.3°F20.7°C 91% 5.0 mph S8.0 kmh S 14.0 mph22.5 kmh 29.72 in1006.4 mb 0.00 in0.0 mm 0.00 in0.0 mm 0.00 in0.0 mm
05:50 AM 72.1°F22.3°C 69.3°F20.7°C 91% 6.0 mph S9.7 kmh S 12.0 mph19.3 kmh 29.72 in1006.4 mb 0.00 in0.0 mm 0.00 in0.0 mm 0.00 in0.0 mm
05:55 AM 72.1°F22.3°C 69.3°F20.7°C 91% 6.0 mph S9.7 kmh S 12.0 mph19.3 kmh 29.71 in1006.1 mb 0.00 in0.0 mm 0.00 in0.0 mm 0.00 in0.0 mm
06:00 AM 72.1°F22.3°C 69.3°F20.7°C 91% 6.0 mph S9.7 kmh S 12.0 mph19.3 kmh 29.71 in1006.1 mb 0.00 in0.0 mm 0.00 in0.0 mm 0.00 in0.0 mm
06:05 AM 72.0°F22.2°C 69.2°F20.7°C 91% 5.0 mph S8.0 kmh S 12.0 mph19.3 kmh 29.72 in1006.4 mb 0.00 in0.0 mm 0.00 in0.0 mm 0.00 in0.0 mm
06:10 AM 72.0°F22.2°C 69.2°F20.7°C 91% 5.0 mph SSW8.0 kmh SSW 11.0 mph17.7 kmh 29.72 in1006.4 mb 0.00 in0.0 mm 0.00 in0.0 mm 0.00 in0.0 mm
06:15 AM 72.0°F22.2°C 69.2°F20.7°C 91% 4.0 mph S6.4 kmh S 11.0 mph17.7 kmh 29.73 in1006.8 mb 0.00 in0.0 mm 0.00 in0.0 mm 0.00 in0.0 mm
06:20 AM 72.0°F22.2°C 69.2°F20.7°C 91% 4.0 mph S6.4 kmh S 9.0 mph14.5 kmh 29.73 in1006.8 mb 0.00 in0.0 mm 0.00 in0.0 mm 0.00 in0.0 mm
06:25 AM 72.1°F22.3°C 69.3°F20.7°C 91% 5.0 mph S8.0 kmh S 12.0 mph19.3 kmh 29.72 in1006.4 mb 0.00 in0.0 mm 0.00 in0.0 mm 0.00 in0.0 mm
06:30 AM 72.1°F22.3°C 69.3°F20.7°C 91% 5.0 mph S8.0 kmh S 12.0 mph19.3 kmh 29.72 in1006.4 mb 0.00 in0.0 mm 0.00 in0.0 mm 0.00 in0.0 mm
06:35 AM 72.1°F22.3°C 69.3°F20.7°C 91% 3.0 mph SSW4.8 kmh SSW 11.0 mph17.7 kmh 29.72 in1006.4 mb 0.00 in0.0 mm 0.00 in0.0 mm 0.00 in0.0 mm
06:40 AM 72.2°F22.3°C 69.4°F20.8°C 91% 3.0 mph SSW4.8 kmh SSW 11.0 mph17.7 kmh 29.72 in1006.4 mb 0.00 in0.0 mm 0.00 in0.0 mm 0.00 in0.0 mm
06:45 AM 72.3°F22.4°C 69.5°F20.8°C 91% 4.0 mph SSW6.4 kmh SSW 9.0 mph14.5 kmh 29.73 in1006.8 mb 0.00 in0.0 mm 0.00 in0.0 mm 0.00 in0.0 mm
06:50 AM 72.3°F22.4°C 69.5°F20.8°C 91% 4.0 mph S6.4 kmh S 9.0 mph14.5 kmh 29.73 in1006.8 mb 0.00 in0.0 mm 0.00 in0.0 mm 0.00 in0.0 mm
06:55 AM 72.4°F22.4°C 69.6°F20.9°C 91% 3.0 mph S4.8 kmh S 10.0 mph16.1 kmh 29.72 in1006.4 mb 0.00 in0.0 mm 0.00 in0.0 mm 0.00 in0.0 mm
07:00 AM 72.2°F22.3°C 69.4°F20.8°C 91% 4.0 mph S6.4 kmh S 14.0 mph22.5 kmh 29.73 in1006.8 mb 0.00 in0.0 mm 0.00 in0.0 mm 0.00 in0.0 mm
07:05 AM 72.3°F22.4°C 69.5°F20.8°C 91% 6.0 mph SSW9.7 kmh SSW 17.0 mph27.4 kmh 29.73 in1006.8 mb 0.00 in0.0 mm 0.00 in0.0 mm 0.00 in0.0 mm
07:10 AM 71.7°F22.1°C 68.6°F20.3°C 90% 6.0 mph WSW9.7 kmh WSW 19.0 mph30.6 kmh 29.75 in1007.5 mb 0.15 in3.8 mm 1.80 in45.7 mm 0.15 in3.8 mm
07:15 AM 70.9°F21.6°C 67.8°F19.9°C 90% 6.0 mph W9.7 kmh W 19.0 mph30.6 kmh 29.75 in1007.5 mb 0.22 in5.6 mm 0.84 in21.3 mm 0.22 in5.6 mm
07:20 AM 70.1°F21.2°C 67.0°F19.4°C 90% 5.0 mph WNW8.0 kmh WNW 17.0 mph27.4 kmh 29.75 in1007.5 mb 0.23 in5.8 mm 0.12 in3.0 mm 0.23 in5.8 mm
07:25 AM 69.3°F20.7°C 66.2°F19.0°C 90% 6.0 mph NW9.7 kmh NW 15.0 mph24.1 kmh 29.75 in1007.5 mb 0.24 in6.1 mm 0.12 in3.0 mm 0.24 in6.1 mm
07:30 AM 68.8°F20.4°C 66.1°F18.9°C 91% 7.0 mph NW11.3 kmh NW 13.0 mph20.9 kmh 29.76 in1007.8 mb 0.26 in6.6 mm 0.24 in6.1 mm 0.26 in6.6 mm
07:35 AM 68.5°F20.3°C 65.8°F18.8°C 91% 6.0 mph NW9.7 kmh NW 15.0 mph24.1 kmh 29.76 in1007.8 mb 0.27 in6.9 mm 0.12 in3.0 mm 0.27 in6.9 mm
07:40 AM 68.1°F20.1°C 65.4°F18.6°C 91% 5.0 mph NW8.0 kmh NW 15.0 mph24.1 kmh 29.75 in1007.5 mb 0.27 in6.9 mm 0.00 in0.0 mm 0.27 in6.9 mm
07:45 AM 68.0°F20.0°C 65.6°F18.7°C 92% 6.0 mph NW9.7 kmh NW 12.0 mph19.3 kmh 29.76 in1007.8 mb 0.27 in6.9 mm 0.00 in0.0 mm 0.27 in6.9 mm
07:50 AM 67.8°F19.9°C 65.4°F18.6°C 92% 6.0 mph NW9.7 kmh NW 12.0 mph19.3 kmh 29.76 in1007.8 mb 0.27 in6.9 mm 0.00 in0.0 mm 0.27 in6.9 mm
07:55 AM 67.2°F19.6°C 64.2°F17.9°C 90% 6.0 mph NW9.7 kmh NW 14.0 mph22.5 kmh 29.77 in1008.1 mb 0.27 in6.9 mm 0.00 in0.0 mm 0.27 in6.9 mm
08:00 AM 66.8°F19.3°C 63.8°F17.7°C 90% 6.0 mph NW9.7 kmh NW 14.0 mph22.5 kmh 29.77 in1008.1 mb 0.27 in6.9 mm 0.00 in0.0 mm 0.27 in6.9 mm
08:05 AM 66.6°F19.2°C 63.9°F17.7°C 91% 5.0 mph NW8.0 kmh NW 13.0 mph20.9 kmh 29.77 in1008.1 mb 0.26 in6.6 mm 0.00 in0.0 mm 0.27 in6.9 mm
08:10 AM 66.3°F19.1°C 63.6°F17.6°C 91% 4.0 mph NW6.4 kmh NW 11.0 mph17.7 kmh 29.78 in1008.5 mb 0.11 in2.8 mm 0.00 in0.0 mm 0.27 in6.9 mm
08:15 AM 66.2°F19.0°C 63.5°F17.5°C 91% 3.0 mph WNW4.8 kmh WNW 10.0 mph16.1 kmh 29.78 in1008.5 mb 0.04 in1.0 mm 0.00 in0.0 mm 0.27 in6.9 mm
08:20 AM 66.0°F18.9°C 63.3°F17.4°C 91% 2.0 mph WNW3.2 kmh WNW 7.0 mph11.3 kmh 29.78 in1008.5 mb 0.04 in1.0 mm 0.00 in0.0 mm 0.27 in6.9 mm
08:25 AM 65.9°F18.8°C 63.2°F17.3°C 91% 1.0 mph W1.6 kmh W 4.0 mph6.4 kmh 29.78 in1008.5 mb 0.03 in0.8 mm 0.00 in0.0 mm 0.27 in6.9 mm
08:30 AM 65.6°F18.7°C 62.9°F17.2°C 91% 1.0 mph W1.6 kmh W 4.0 mph6.4 kmh 29.78 in1008.5 mb 0.01 in0.3 mm 0.00 in0.0 mm 0.27 in6.9 mm
08:35 AM 65.5°F18.6°C 62.8°F17.1°C 91% 1.0 mph W1.6 kmh W 4.0 mph6.4 kmh 29.78 in1008.5 mb 0.00 in0.0 mm 0.00 in0.0 mm 0.27 in6.9 mm
08:40 AM 65.4°F18.6°C 62.7°F17.1°C 91% Calm Calm 3.0 mph4.8 kmh 29.78 in1008.5 mb 0.00 in0.0 mm 0.00 in0.0 mm 0.27 in6.9 mm
08:45 AM 65.4°F18.6°C 62.7°F17.1°C 91% Calm Calm 3.0 mph4.8 kmh 29.78 in1008.5 mb 0.00 in0.0 mm 0.00 in0.0 mm 0.27 in6.9 mm
08:50 AM 65.3°F18.5°C 62.9°F17.2°C 92% Calm Calm 1.0 mph1.6 kmh 29.79 in1008.8 mb 0.00 in0.0 mm 0.00 in0.0 mm 0.27 in6.9 mm
08:55 AM 65.3°F18.5°C 62.9°F17.2°C 92% Calm Calm -- 29.79 in1008.8 mb 0.00 in0.0 mm 0.00 in0.0 mm 0.27 in6.9 mm
09:00 AM 65.3°F18.5°C 62.9°F17.2°C 92% Calm Calm 1.0 mph1.6 kmh 29.79 in1008.8 mb 0.00 in0.0 mm 0.00 in0.0 mm 0.27 in6.9 mm
09:05 AM 65.3°F18.5°C 62.9°F17.2°C 92% Calm Calm 1.0 mph1.6 kmh 29.80 in1009.1 mb 0.00 in0.0 mm 0.00 in0.0 mm 0.27 in6.9 mm
09:10 AM 65.4°F18.6°C 63.0°F17.2°C 92% Calm Calm 1.0 mph1.6 kmh 29.80 in1009.1 mb 0.00 in0.0 mm 0.00 in0.0 mm 0.27 in6.9 mm
09:15 AM 65.6°F18.7°C 63.5°F17.5°C 93% Calm Calm 1.0 mph1.6 kmh 29.81 in1009.5 mb 0.00 in0.0 mm 0.00 in0.0 mm 0.27 in6.9 mm
09:20 AM 65.9°F18.8°C 63.8°F17.7°C 93% Calm Calm 2.0 mph3.2 kmh 29.80 in1009.1 mb 0.00 in0.0 mm 0.00 in0.0 mm 0.27 in6.9 mm
09:25 AM 66.7°F19.3°C 64.6°F18.1°C 93% 1.0 mph W1.6 kmh W 3.0 mph4.8 kmh 29.81 in1009.5 mb 0.00 in0.0 mm 0.00 in0.0 mm 0.27 in6.9 mm
09:30 AM 67.2°F19.6°C 64.8°F18.2°C 92% 2.0 mph W3.2 kmh W 3.0 mph4.8 kmh 29.81 in1009.5 mb 0.00 in0.0 mm 0.00 in0.0 mm 0.27 in6.9 mm
09:35 AM 67.5°F19.7°C 64.5°F18.1°C 90% 1.0 mph W1.6 kmh W 3.0 mph4.8 kmh 29.82 in1009.8 mb 0.00 in0.0 mm 0.00 in0.0 mm 0.27 in6.9 mm
09:40 AM 67.7°F19.8°C 64.7°F18.2°C 90% 1.0 mph W1.6 kmh W 4.0 mph6.4 kmh 29.82 in1009.8 mb 0.00 in0.0 mm 0.00 in0.0 mm 0.27 in6.9 mm
09:45 AM 67.9°F19.9°C 64.9°F18.3°C 90% 1.0 mph WSW1.6 kmh WSW 4.0 mph6.4 kmh 29.83 in1010.2 mb 0.00 in0.0 mm 0.00 in0.0 mm 0.27 in6.9 mm
09:50 AM 68.1°F20.1°C 64.4°F18.0°C 88% 1.0 mph WSW1.6 kmh WSW 6.0 mph9.7 kmh 29.83 in1010.2 mb 0.00 in0.0 mm 0.00 in0.0 mm 0.27 in6.9 mm
09:55 AM 68.3°F20.2°C 64.3°F17.9°C 87% 2.0 mph W3.2 kmh W 6.0 mph9.7 kmh 29.83 in1010.2 mb 0.00 in0.0 mm 0.00 in0.0 mm 0.27 in6.9 mm
10:00 AM 68.4°F20.2°C 64.0°F17.8°C 86% 2.0 mph WNW3.2 kmh WNW 6.0 mph9.7 kmh 29.83 in1010.2 mb 0.00 in0.0 mm 0.00 in0.0 mm 0.27 in6.9 mm
10:05 AM 68.8°F20.4°C 63.8°F17.7°C 84% 2.0 mph W3.2 kmh W 8.0 mph12.9 kmh 29.83 in1010.2 mb 0.00 in0.0 mm 0.00 in0.0 mm 0.27 in6.9 mm
10:10 AM 69.2°F20.7°C 64.2°F17.9°C 84% 3.0 mph W4.8 kmh W 8.0 mph12.9 kmh 29.83 in1010.2 mb 0.00 in0.0 mm 0.00 in0.0 mm 0.27 in6.9 mm
10:15 AM 69.6°F20.9°C 64.5°F18.1°C 84% 2.0 mph W3.2 kmh W 8.0 mph12.9 kmh 29.83 in1010.2 mb 0.00 in0.0 mm 0.00 in0.0 mm 0.27 in6.9 mm
10:20 AM 70.2°F21.2°C 64.4°F18.0°C 82% 2.0 mph W3.2 kmh W 7.0 mph11.3 kmh 29.83 in1010.2 mb 0.00 in0.0 mm 0.00 in0.0 mm 0.27 in6.9 mm
10:25 AM 70.7°F21.5°C 64.6°F18.1°C 81% 2.0 mph WSW3.2 kmh WSW 7.0 mph11.3 kmh 29.83 in1010.2 mb 0.00 in0.0 mm 0.00 in0.0 mm 0.27 in6.9 mm
10:30 AM 71.1°F21.7°C 64.6°F18.1°C 80% 2.0 mph WSW3.2 kmh WSW 7.0 mph11.3 kmh 29.83 in1010.2 mb 0.00 in0.0 mm 0.00 in0.0 mm 0.27 in6.9 mm
10:35 AM 71.7°F22.1°C 63.4°F17.4°C 75% 2.0 mph WSW3.2 kmh WSW 7.0 mph11.3 kmh 29.84 in1010.5 mb 0.00 in0.0 mm 0.00 in0.0 mm 0.27 in6.9 mm
10:40 AM 72.3°F22.4°C 63.2°F17.3°C 73% 2.0 mph W3.2 kmh W 7.0 mph11.3 kmh 29.83 in1010.2 mb 0.00 in0.0 mm 0.00 in0.0 mm 0.27 in6.9 mm
10:45 AM 72.7°F22.6°C 62.3°F16.8°C 70% 3.0 mph W4.8 kmh W 9.0 mph14.5 kmh 29.83 in1010.2 mb 0.00 in0.0 mm 0.00 in0.0 mm 0.27 in6.9 mm
10:50 AM 72.8°F22.7°C 62.8°F17.1°C 71% 3.0 mph W4.8 kmh W 9.0 mph14.5 kmh 29.84 in1010.5 mb 0.00 in0.0 mm 0.00 in0.0 mm 0.27 in6.9 mm
10:55 AM 72.9°F22.7°C 62.1°F16.7°C 69% 3.0 mph W4.8 kmh W 9.0 mph14.5 kmh 29.84 in1010.5 mb 0.00 in0.0 mm 0.00 in0.0 mm 0.27 in6.9 mm
11:00 AM 73.4°F23.0°C 62.2°F16.8°C 68% 3.0 mph WSW4.8 kmh WSW 10.0 mph16.1 kmh 29.84 in1010.5 mb 0.00 in0.0 mm 0.00 in0.0 mm 0.27 in6.9 mm
11:05 AM 73.7°F23.2°C 61.2°F16.2°C 65% 4.0 mph W6.4 kmh W 11.0 mph17.7 kmh 29.84 in1010.5 mb 0.00 in0.0 mm 0.00 in0.0 mm 0.27 in6.9 mm
11:10 AM 73.4°F23.0°C 61.3°F16.3°C 66% 5.0 mph W8.0 kmh W 11.0 mph17.7 kmh 29.84 in1010.5 mb 0.00 in0.0 mm 0.00 in0.0 mm 0.27 in6.9 mm
11:15 AM 73.0°F22.8°C 61.4°F16.3°C 67% 4.0 mph W6.4 kmh W 11.0 mph17.7 kmh 29.83 in1010.2 mb 0.00 in0.0 mm 0.00 in0.0 mm 0.27 in6.9 mm
11:20 AM 72.6°F22.6°C 61.8°F16.6°C 69% 3.0 mph WSW4.8 kmh WSW 8.0 mph12.9 kmh 29.83 in1010.2 mb 0.00 in0.0 mm 0.00 in0.0 mm 0.27 in6.9 mm
11:25 AM 72.6°F22.6°C 61.4°F16.3°C 68% 3.0 mph WSW4.8 kmh WSW 11.0 mph17.7 kmh 29.83 in1010.2 mb 0.00 in0.0 mm 0.00 in0.0 mm 0.27 in6.9 mm
11:30 AM 72.4°F22.4°C 61.7°F16.5°C 69% 4.0 mph WSW6.4 kmh WSW 11.0 mph17.7 kmh 29.83 in1010.2 mb 0.00 in0.0 mm 0.00 in0.0 mm 0.27 in6.9 mm
11:35 AM 72.4°F22.4°C 62.1°F16.7°C 70% 4.0 mph WSW6.4 kmh WSW 10.0 mph16.1 kmh 29.83 in1010.2 mb 0.00 in0.0 mm 0.00 in0.0 mm 0.27 in6.9 mm
11:40 AM 72.8°F22.7°C 62.8°F17.1°C 71% 4.0 mph W6.4 kmh W 9.0 mph14.5 kmh 29.82 in1009.8 mb 0.00 in0.0 mm 0.00 in0.0 mm 0.27 in6.9 mm
11:45 AM 73.3°F22.9°C 62.9°F17.2°C 70% 4.0 mph W6.4 kmh W 9.0 mph14.5 kmh 29.82 in1009.8 mb 0.00 in0.0 mm 0.00 in0.0 mm 0.27 in6.9 mm
11:50 AM 74.0°F23.3°C 63.6°F17.6°C 70% 4.0 mph W6.4 kmh W 10.0 mph16.1 kmh 29.82 in1009.8 mb 0.00 in0.0 mm 0.00 in0.0 mm 0.27 in6.9 mm
11:55 AM 74.5°F23.6°C 63.7°F17.6°C 69% 4.0 mph W6.4 kmh W 10.0 mph16.1 kmh 29.82 in1009.8 mb 0.00 in0.0 mm 0.00 in0.0 mm 0.27 in6.9 mm
12:00 PM 74.9°F23.8°C 63.6°F17.6°C 68% 4.0 mph W6.4 kmh W 10.0 mph16.1 kmh 29.82 in1009.8 mb 0.00 in0.0 mm 0.00 in0.0 mm 0.27 in6.9 mm
12:05 PM 75.3°F24.1°C 64.4°F18.0°C 69% 4.0 mph W6.4 kmh W 10.0 mph16.1 kmh 29.82 in1009.8 mb 0.00 in0.0 mm 0.00 in0.0 mm 0.27 in6.9 mm
12:10 PM 75.7°F24.3°C 64.0°F17.8°C 67% 4.0 mph W6.4 kmh W 14.0 mph22.5 kmh 29.81 in1009.5 mb 0.00 in0.0 mm 0.00 in0.0 mm 0.27 in6.9 mm
12:15 PM 75.9°F24.4°C 63.7°F17.6°C 66% 5.0 mph WNW8.0 kmh WNW 14.0 mph22.5 kmh 29.81 in1009.5 mb 0.00 in0.0 mm 0.00 in0.0 mm 0.27 in6.9 mm
12:20 PM 76.1°F24.5°C 63.0°F17.2°C 64% 5.0 mph WNW8.0 kmh WNW 13.0 mph20.9 kmh 29.81 in1009.5 mb 0.00 in0.0 mm 0.00 in0.0 mm 0.27 in6.9 mm
12:25 PM 76.2°F24.6°C 62.7°F17.1°C 63% 5.0 mph WNW8.0 kmh WNW 12.0 mph19.3 kmh 29.81 in1009.5 mb 0.00 in0.0 mm 0.00 in0.0 mm 0.27 in6.9 mm
12:30 PM 76.0°F24.4°C 62.9°F17.2°C 64% 5.0 mph WNW8.0 kmh WNW 12.0 mph19.3 kmh 29.81 in1009.5 mb 0.00 in0.0 mm 0.00 in0.0 mm 0.27 in6.9 mm
12:35 PM 75.8°F24.3°C 62.8°F17.1°C 64% 5.0 mph WNW8.0 kmh WNW 12.0 mph19.3 kmh 29.81 in1009.5 mb 0.00 in0.0 mm 0.00 in0.0 mm 0.27 in6.9 mm
12:40 PM 75.7°F24.3°C 62.7°F17.1°C 64% 6.0 mph WNW9.7 kmh WNW 10.0 mph16.1 kmh 29.81 in1009.5 mb 0.00 in0.0 mm 0.00 in0.0 mm 0.27 in6.9 mm
12:45 PM 75.8°F24.3°C 62.8°F17.1°C 64% 5.0 mph WNW8.0 kmh WNW 12.0 mph19.3 kmh 29.81 in1009.5 mb 0.00 in0.0 mm 0.00 in0.0 mm 0.27 in6.9 mm
12:50 PM 75.9°F24.4°C 62.4°F16.9°C 63% 6.0 mph WNW9.7 kmh WNW 13.0 mph20.9 kmh 29.80 in1009.1 mb 0.00 in0.0 mm 0.00 in0.0 mm 0.27 in6.9 mm
12:55 PM 75.9°F24.4°C 63.3°F17.4°C 65% 6.0 mph WNW9.7 kmh WNW 13.0 mph20.9 kmh 29.80 in1009.1 mb 0.00 in0.0 mm 0.00 in0.0 mm 0.27 in6.9 mm
01:00 PM 76.0°F24.4°C 63.4°F17.4°C 65% 6.0 mph W9.7 kmh W 13.0 mph20.9 kmh 29.81 in1009.5 mb 0.00 in0.0 mm 0.00 in0.0 mm 0.27 in6.9 mm
01:05 PM 76.3°F24.6°C 63.7°F17.6°C 65% 5.0 mph W8.0 kmh W 12.0 mph19.3 kmh 29.80 in1009.1 mb 0.00 in0.0 mm 0.00 in0.0 mm 0.27 in6.9 mm
01:10 PM 76.4°F24.7°C 64.2°F17.9°C 66% 5.0 mph W8.0 kmh W 10.0 mph16.1 kmh 29.80 in1009.1 mb 0.00 in0.0 mm 0.00 in0.0 mm 0.27 in6.9 mm
01:15 PM 77.0°F25.0°C 64.3°F17.9°C 65% 4.0 mph W6.4 kmh W 10.0 mph16.1 kmh 29.80 in1009.1 mb 0.00 in0.0 mm 0.00 in0.0 mm 0.27 in6.9 mm
01:20 PM 77.3°F25.2°C 64.2°F17.9°C 64% 5.0 mph WNW8.0 kmh WNW 18.0 mph29.0 kmh 29.80 in1009.1 mb 0.00 in0.0 mm 0.00 in0.0 mm 0.27 in6.9 mm
01:25 PM 77.1°F25.1°C 63.5°F17.5°C 63% 7.0 mph WNW11.3 kmh WNW 18.0 mph29.0 kmh 29.80 in1009.1 mb 0.00 in0.0 mm 0.00 in0.0 mm 0.27 in6.9 mm
01:30 PM 75.9°F24.4°C 63.3°F17.4°C 65% 7.0 mph WNW11.3 kmh WNW 16.0 mph25.7 kmh 29.80 in1009.1 mb 0.00 in0.0 mm 0.00 in0.0 mm 0.27 in6.9 mm
01:35 PM 75.7°F24.3°C 64.0°F17.8°C 67% 6.0 mph W9.7 kmh W 16.0 mph25.7 kmh 29.80 in1009.1 mb 0.00 in0.0 mm 0.00 in0.0 mm 0.27 in6.9 mm
01:40 PM 76.2°F24.6°C 63.6°F17.6°C 65% 5.0 mph W8.0 kmh W 11.0 mph17.7 kmh 29.80 in1009.1 mb 0.00 in0.0 mm 0.00 in0.0 mm 0.27 in6.9 mm
01:45 PM 76.9°F24.9°C 64.2°F17.9°C 65% 4.0 mph W6.4 kmh W 9.0 mph14.5 kmh 29.80 in1009.1 mb 0.00 in0.0 mm 0.00 in0.0 mm 0.27 in6.9 mm
01:50 PM 77.4°F25.2°C 63.4°F17.4°C 62% 3.0 mph WSW4.8 kmh WSW 9.0 mph14.5 kmh 29.80 in1009.1 mb 0.00 in0.0 mm 0.00 in0.0 mm 0.27 in6.9 mm
01:55 PM 77.4°F25.2°C 63.4°F17.4°C 62% 4.0 mph WSW6.4 kmh WSW 11.0 mph17.7 kmh 29.81 in1009.5 mb 0.00 in0.0 mm 0.00 in0.0 mm 0.27 in6.9 mm
02:00 PM 77.3°F25.2°C 61.4°F16.3°C 58% 5.0 mph W8.0 kmh W 11.0 mph17.7 kmh 29.81 in1009.5 mb 0.00 in0.0 mm 0.00 in0.0 mm 0.27 in6.9 mm
02:05 PM 77.0°F25.0°C 62.0°F16.7°C 60% 6.0 mph W9.7 kmh W 12.0 mph19.3 kmh 29.81 in1009.5 mb 0.00 in0.0 mm 0.00 in0.0 mm 0.27 in6.9 mm
02:10 PM 77.2°F25.1°C 61.3°F16.3°C 58% 5.0 mph WNW8.0 kmh WNW 15.0 mph24.1 kmh 29.81 in1009.5 mb 0.00 in0.0 mm 0.00 in0.0 mm 0.27 in6.9 mm
02:15 PM 77.4°F25.2°C 61.5°F16.4°C 58% 5.0 mph WNW8.0 kmh WNW 15.0 mph24.1 kmh 29.81 in1009.5 mb 0.00 in0.0 mm 0.00 in0.0 mm 0.27 in6.9 mm
02:20 PM 77.4°F25.2°C 61.9°F16.6°C 59% 5.0 mph W8.0 kmh W 14.0 mph22.5 kmh 29.81 in1009.5 mb 0.00 in0.0 mm 0.00 in0.0 mm 0.27 in6.9 mm
02:25 PM 76.9°F24.9°C 60.5°F15.8°C 57% 6.0 mph W9.7 kmh W 14.0 mph22.5 kmh 29.82 in1009.8 mb 0.00 in0.0 mm 0.00 in0.0 mm 0.27 in6.9 mm
02:30 PM 76.9°F24.9°C 61.0°F16.1°C 58% 6.0 mph W9.7 kmh W 13.0 mph20.9 kmh 29.82 in1009.8 mb 0.00 in0.0 mm 0.00 in0.0 mm 0.27 in6.9 mm
02:35 PM 77.0°F25.0°C 60.1°F15.6°C 56% 5.0 mph W8.0 kmh W 19.0 mph30.6 kmh 29.82 in1009.8 mb 0.00 in0.0 mm 0.00 in0.0 mm 0.27 in6.9 mm
02:40 PM 76.9°F24.9°C 61.0°F16.1°C 58% 6.0 mph W9.7 kmh W 19.0 mph30.6 kmh 29.82 in1009.8 mb 0.00 in0.0 mm 0.00 in0.0 mm 0.27 in6.9 mm
02:45 PM 76.9°F24.9°C 61.0°F16.1°C 58% 6.0 mph WNW9.7 kmh WNW 12.0 mph19.3 kmh 29.82 in1009.8 mb 0.00 in0.0 mm 0.00 in0.0 mm 0.27 in6.9 mm
02:50 PM 76.5°F24.7°C 58.6°F14.8°C 54% 7.0 mph NW11.3 kmh NW 18.0 mph29.0 kmh 29.82 in1009.8 mb 0.00 in0.0 mm 0.00 in0.0 mm 0.27 in6.9 mm
02:55 PM 76.1°F24.5°C 58.2°F14.6°C 54% 7.0 mph NW11.3 kmh NW 18.0 mph29.0 kmh 29.82 in1009.8 mb 0.00 in0.0 mm 0.00 in0.0 mm 0.27 in6.9 mm
03:00 PM 76.1°F24.5°C 58.2°F14.6°C 54% 6.0 mph WNW9.7 kmh WNW 15.0 mph24.1 kmh 29.82 in1009.8 mb 0.00 in0.0 mm 0.00 in0.0 mm 0.27 in6.9 mm
03:05 PM 76.2°F24.6°C 57.8°F14.3°C 53% 5.0 mph W8.0 kmh W 13.0 mph20.9 kmh 29.82 in1009.8 mb 0.00 in0.0 mm 0.00 in0.0 mm 0.27 in6.9 mm
03:10 PM 76.1°F24.5°C 57.7°F14.3°C 53% 5.0 mph W8.0 kmh W 11.0 mph17.7 kmh 29.82 in1009.8 mb 0.00 in0.0 mm 0.00 in0.0 mm 0.27 in6.9 mm
03:15 PM 75.7°F24.3°C 56.3°F13.5°C 51% 6.0 mph W9.7 kmh W 13.0 mph20.9 kmh 29.83 in1010.2 mb 0.00 in0.0 mm 0.00 in0.0 mm 0.27 in6.9 mm
03:20 PM 75.2°F24.0°C 55.8°F13.2°C 51% 7.0 mph WNW11.3 kmh WNW 15.0 mph24.1 kmh 29.83 in1010.2 mb 0.00 in0.0 mm 0.00 in0.0 mm 0.27 in6.9 mm
03:25 PM 75.0°F23.9°C 56.2°F13.4°C 52% 7.0 mph WNW11.3 kmh WNW 15.0 mph24.1 kmh 29.83 in1010.2 mb 0.00 in0.0 mm 0.00 in0.0 mm 0.27 in6.9 mm
03:30 PM 75.0°F23.9°C 56.2°F13.4°C 52% 6.0 mph WNW9.7 kmh WNW 14.0 mph22.5 kmh 29.83 in1010.2 mb 0.00 in0.0 mm 0.00 in0.0 mm 0.27 in6.9 mm
03:35 PM 75.2°F24.0°C 56.4°F13.6°C 52% 5.0 mph WNW8.0 kmh WNW 14.0 mph22.5 kmh 29.83 in1010.2 mb 0.00 in0.0 mm 0.00 in0.0 mm 0.27 in6.9 mm
03:40 PM 75.5°F24.2°C 57.2°F14.0°C 53% 4.0 mph WNW6.4 kmh WNW 12.0 mph19.3 kmh 29.83 in1010.2 mb 0.00 in0.0 mm 0.00 in0.0 mm 0.27 in6.9 mm
03:45 PM 75.3°F24.1°C 56.5°F13.6°C 52% 4.0 mph WNW6.4 kmh WNW 11.0 mph17.7 kmh 29.83 in1010.2 mb 0.00 in0.0 mm 0.00 in0.0 mm 0.27 in6.9 mm
03:50 PM 75.0°F23.9°C 56.7°F13.7°C 53% 5.0 mph WNW8.0 kmh WNW 11.0 mph17.7 kmh 29.83 in1010.2 mb 0.00 in0.0 mm 0.00 in0.0 mm 0.27 in6.9 mm
03:55 PM 74.9°F23.8°C 56.6°F13.7°C 53% 5.0 mph WNW8.0 kmh WNW 15.0 mph24.1 kmh 29.84 in1010.5 mb 0.00 in0.0 mm 0.00 in0.0 mm 0.27 in6.9 mm
04:00 PM 74.7°F23.7°C 56.9°F13.8°C 54% 5.0 mph WNW8.0 kmh WNW 15.0 mph24.1 kmh 29.84 in1010.5 mb 0.00 in0.0 mm 0.00 in0.0 mm 0.27 in6.9 mm
04:05 PM 74.3°F23.5°C 56.1°F13.4°C 53% 6.0 mph WNW9.7 kmh WNW 15.0 mph24.1 kmh 29.84 in1010.5 mb 0.00 in0.0 mm 0.00 in0.0 mm 0.27 in6.9 mm
04:10 PM 74.1°F23.4°C 56.4°F13.6°C 54% 6.0 mph WNW9.7 kmh WNW 15.0 mph24.1 kmh 29.84 in1010.5 mb 0.00 in0.0 mm 0.00 in0.0 mm 0.27 in6.9 mm
04:15 PM 73.8°F23.2°C 56.1°F13.4°C 54% 6.0 mph WNW9.7 kmh WNW 13.0 mph20.9 kmh 29.85 in1010.8 mb 0.00 in0.0 mm 0.00 in0.0 mm 0.27 in6.9 mm
04:20 PM 73.5°F23.1°C 55.8°F13.2°C 54% 5.0 mph NW8.0 kmh NW 13.0 mph20.9 kmh 29.85 in1010.8 mb 0.00 in0.0 mm 0.00 in0.0 mm 0.27 in6.9 mm
04:25 PM 73.2°F22.9°C 56.1°F13.4°C 55% 5.0 mph NW8.0 kmh NW 11.0 mph17.7 kmh 29.86 in1011.2 mb 0.00 in0.0 mm 0.00 in0.0 mm 0.27 in6.9 mm
04:30 PM 73.0°F22.8°C 56.4°F13.6°C 56% 4.0 mph NW6.4 kmh NW 14.0 mph22.5 kmh 29.86 in1011.2 mb 0.00 in0.0 mm 0.00 in0.0 mm 0.27 in6.9 mm
04:35 PM 72.6°F22.6°C 57.0°F13.9°C 58% 5.0 mph NW8.0 kmh NW 14.0 mph22.5 kmh 29.86 in1011.2 mb 0.00 in0.0 mm 0.00 in0.0 mm 0.27 in6.9 mm
04:40 PM 72.5°F22.5°C 57.4°F14.1°C 59% 5.0 mph WNW8.0 kmh WNW 11.0 mph17.7 kmh 29.86 in1011.2 mb 0.00 in0.0 mm 0.00 in0.0 mm 0.27 in6.9 mm
04:45 PM 72.3°F22.4°C 57.2°F14.0°C 59% 4.0 mph WNW6.4 kmh WNW 11.0 mph17.7 kmh 29.86 in1011.2 mb 0.00 in0.0 mm 0.00 in0.0 mm 0.27 in6.9 mm
04:50 PM 72.1°F22.3°C 57.9°F14.4°C 61% 4.0 mph WNW6.4 kmh WNW 10.0 mph16.1 kmh 29.87 in1011.5 mb 0.00 in0.0 mm 0.00 in0.0 mm 0.27 in6.9 mm
04:55 PM 71.9°F22.2°C 57.7°F14.3°C 61% 4.0 mph NW6.4 kmh NW 10.0 mph16.1 kmh 29.87 in1011.5 mb 0.00 in0.0 mm 0.00 in0.0 mm 0.27 in6.9 mm
05:00 PM 71.1°F21.7°C 57.9°F14.4°C 63% 5.0 mph NW8.0 kmh NW 11.0 mph17.7 kmh 29.87 in1011.5 mb 0.00 in0.0 mm 0.00 in0.0 mm 0.27 in6.9 mm
05:05 PM 70.2°F21.2°C 57.4°F14.1°C 64% 6.0 mph NW9.7 kmh NW 12.0 mph19.3 kmh 29.88 in1011.9 mb 0.00 in0.0 mm 0.00 in0.0 mm 0.27 in6.9 mm
05:10 PM 69.5°F20.8°C 57.2°F14.0°C 65% 5.0 mph NW8.0 kmh NW 12.0 mph19.3 kmh 29.88 in1011.9 mb 0.00 in0.0 mm 0.00 in0.0 mm 0.27 in6.9 mm
05:15 PM 68.7°F20.4°C 56.5°F13.6°C 65% 5.0 mph NW8.0 kmh NW 12.0 mph19.3 kmh 29.88 in1011.9 mb 0.00 in0.0 mm 0.00 in0.0 mm 0.27 in6.9 mm
05:20 PM 68.1°F20.1°C 55.9°F13.3°C 65% 6.0 mph NW9.7 kmh NW 12.0 mph19.3 kmh 29.88 in1011.9 mb 0.00 in0.0 mm 0.00 in0.0 mm 0.27 in6.9 mm
05:25 PM 67.7°F19.8°C 55.9°F13.3°C 66% 5.0 mph NW8.0 kmh NW 13.0 mph20.9 kmh 29.89 in1012.2 mb 0.00 in0.0 mm 0.00 in0.0 mm 0.27 in6.9 mm
05:30 PM 67.3°F19.6°C 55.5°F13.1°C 66% 5.0 mph NW8.0 kmh NW 13.0 mph20.9 kmh 29.89 in1012.2 mb 0.00 in0.0 mm 0.00 in0.0 mm 0.27 in6.9 mm
05:35 PM 66.9°F19.4°C 55.6°F13.1°C 67% 5.0 mph NW8.0 kmh NW 10.0 mph16.1 kmh 29.89 in1012.2 mb 0.00 in0.0 mm 0.00 in0.0 mm 0.27 in6.9 mm
05:40 PM 66.5°F19.2°C 55.2°F12.9°C 67% 4.0 mph NW6.4 kmh NW 10.0 mph16.1 kmh 29.89 in1012.2 mb 0.00 in0.0 mm 0.00 in0.0 mm 0.27 in6.9 mm
05:45 PM 66.1°F18.9°C 54.8°F12.7°C 67% 5.0 mph NW8.0 kmh NW 11.0 mph17.7 kmh 29.89 in1012.2 mb 0.00 in0.0 mm 0.00 in0.0 mm 0.27 in6.9 mm
05:50 PM 65.8°F18.8°C 54.9°F12.7°C 68% 4.0 mph NW6.4 kmh NW 11.0 mph17.7 kmh 29.90 in1012.5 mb 0.00 in0.0 mm 0.00 in0.0 mm 0.27 in6.9 mm
05:55 PM 65.5°F18.6°C 54.7°F12.6°C 68% 4.0 mph NW6.4 kmh NW 8.0 mph12.9 kmh 29.90 in1012.5 mb 0.00 in0.0 mm 0.00 in0.0 mm 0.27 in6.9 mm
06:00 PM 65.3°F18.5°C 54.9°F12.7°C 69% 3.0 mph NW4.8 kmh NW 9.0 mph14.5 kmh 29.90 in1012.5 mb 0.00 in0.0 mm 0.00 in0.0 mm 0.27 in6.9 mm
06:05 PM 65.0°F18.3°C 54.6°F12.6°C 69% 3.0 mph NW4.8 kmh NW 9.0 mph14.5 kmh 29.90 in1012.5 mb 0.00 in0.0 mm 0.00 in0.0 mm 0.27 in6.9 mm
06:10 PM 64.7°F18.2°C 54.7°F12.6°C 70% 2.0 mph NW3.2 kmh NW 6.0 mph9.7 kmh 29.90 in1012.5 mb 0.00 in0.0 mm 0.00 in0.0 mm 0.27 in6.9 mm
06:15 PM 64.4°F18.0°C 54.4°F12.4°C 70% 2.0 mph NW3.2 kmh NW 5.0 mph8.0 kmh 29.90 in1012.5 mb 0.00 in0.0 mm 0.00 in0.0 mm 0.27 in6.9 mm
06:20 PM 64.0°F17.8°C 54.4°F12.4°C 71% 2.0 mph WNW3.2 kmh WNW 5.0 mph8.0 kmh 29.91 in1012.9 mb 0.00 in0.0 mm 0.00 in0.0 mm 0.27 in6.9 mm
06:25 PM 63.7°F17.6°C 54.1°F12.3°C 71% 1.0 mph W1.6 kmh W 4.0 mph6.4 kmh 29.91 in1012.9 mb 0.00 in0.0 mm 0.00 in0.0 mm 0.27 in6.9 mm
06:30 PM 63.5°F17.5°C 54.3°F12.4°C 72% 1.0 mph W1.6 kmh W 3.0 mph4.8 kmh 29.91 in1012.9 mb 0.00 in0.0 mm 0.00 in0.0 mm 0.27 in6.9 mm
06:35 PM 63.0°F17.2°C 53.8°F12.1°C 72% 1.0 mph W1.6 kmh W 3.0 mph4.8 kmh 29.91 in1012.9 mb 0.00 in0.0 mm 0.00 in0.0 mm 0.27 in6.9 mm
06:40 PM 62.6°F17.0°C 53.4°F11.9°C 72% 1.0 mph WNW1.6 kmh WNW 3.0 mph4.8 kmh 29.91 in1012.9 mb 0.00 in0.0 mm 0.00 in0.0 mm 0.27 in6.9 mm
06:45 PM 62.3°F16.8°C 53.5°F11.9°C 73% 1.0 mph NW1.6 kmh NW 3.0 mph4.8 kmh 29.91 in1012.9 mb 0.00 in0.0 mm 0.00 in0.0 mm 0.27 in6.9 mm
06:50 PM 62.0°F16.7°C 53.6°F12.0°C 74% Calm Calm 1.0 mph1.6 kmh 29.91 in1012.9 mb 0.00 in0.0 mm 0.00 in0.0 mm 0.27 in6.9 mm
06:55 PM 61.5°F16.4°C 53.1°F11.7°C 74% Calm Calm 1.0 mph1.6 kmh 29.91 in1012.9 mb 0.00 in0.0 mm 0.00 in0.0 mm 0.27 in6.9 mm
07:00 PM 61.1°F16.2°C 53.1°F11.7°C 75% Calm Calm 1.0 mph1.6 kmh 29.91 in1012.9 mb 0.00 in0.0 mm 0.00 in0.0 mm 0.27 in6.9 mm
07:05 PM 60.5°F15.8°C 52.9°F11.6°C 76% Calm Calm 1.0 mph1.6 kmh 29.92 in1013.2 mb 0.00 in0.0 mm 0.00 in0.0 mm 0.27 in6.9 mm
07:10 PM 60.1°F15.6°C 52.9°F11.6°C 77% Calm Calm 2.0 mph3.2 kmh 29.92 in1013.2 mb 0.00 in0.0 mm 0.00 in0.0 mm 0.27 in6.9 mm
07:15 PM 59.9°F15.5°C 53.0°F11.7°C 78% Calm Calm 2.0 mph3.2 kmh 29.92 in1013.2 mb 0.00 in0.0 mm 0.00 in0.0 mm 0.27 in6.9 mm
07:20 PM 59.6°F15.3°C 53.1°F11.7°C 79% Calm Calm 1.0 mph1.6 kmh 29.93 in1013.5 mb 0.00 in0.0 mm 0.00 in0.0 mm 0.27 in6.9 mm
07:25 PM 59.2°F15.1°C 52.7°F11.5°C 79% Calm Calm 1.0 mph1.6 kmh 29.93 in1013.5 mb 0.00 in0.0 mm 0.00 in0.0 mm 0.27 in6.9 mm
07:30 PM 58.8°F14.9°C 52.6°F11.4°C 80% Calm Calm 1.0 mph1.6 kmh 29.93 in1013.5 mb 0.00 in0.0 mm 0.00 in0.0 mm 0.27 in6.9 mm
07:35 PM 58.4°F14.7°C 52.3°F11.3°C 80% Calm Calm 3.0 mph4.8 kmh 29.93 in1013.5 mb 0.00 in0.0 mm 0.00 in0.0 mm 0.27 in6.9 mm
07:40 PM 58.0°F14.4°C 52.5°F11.4°C 82% 1.0 mph NW1.6 kmh NW 3.0 mph4.8 kmh 29.93 in1013.5 mb 0.00 in0.0 mm 0.00 in0.0 mm 0.27 in6.9 mm
07:45 PM 57.7°F14.3°C 52.6°F11.4°C 83% 1.0 mph NW1.6 kmh NW 3.0 mph4.8 kmh 29.94 in1013.9 mb 0.00 in0.0 mm 0.00 in0.0 mm 0.27 in6.9 mm
07:50 PM 57.6°F14.2°C 52.8°F11.6°C 84% 1.0 mph NW1.6 kmh NW 4.0 mph6.4 kmh 29.94 in1013.9 mb 0.00 in0.0 mm 0.00 in0.0 mm 0.27 in6.9 mm
07:55 PM 57.6°F14.2°C 53.1°F11.7°C 85% 1.0 mph NW1.6 kmh NW 4.0 mph6.4 kmh 29.94 in1013.9 mb 0.00 in0.0 mm 0.00 in0.0 mm 0.27 in6.9 mm
08:00 PM 57.5°F14.2°C 52.7°F11.5°C 84% 1.0 mph NW1.6 kmh NW 3.0 mph4.8 kmh 29.94 in1013.9 mb 0.00 in0.0 mm 0.00 in0.0 mm 0.27 in6.9 mm
08:05 PM 57.6°F14.2°C 52.8°F11.6°C 84% Calm Calm 3.0 mph4.8 kmh 29.94 in1013.9 mb 0.00 in0.0 mm 0.00 in0.0 mm 0.27 in6.9 mm
08:10 PM 57.5°F14.2°C 53.0°F11.7°C 85% Calm Calm 3.0 mph4.8 kmh 29.95 in1014.2 mb 0.00 in0.0 mm 0.00 in0.0 mm 0.27 in6.9 mm
08:15 PM 57.3°F14.1°C 52.8°F11.6°C 85% 1.0 mph NW1.6 kmh NW 2.0 mph3.2 kmh 29.95 in1014.2 mb 0.00 in0.0 mm 0.00 in0.0 mm 0.27 in6.9 mm
08:20 PM 57.2°F14.0°C 52.7°F11.5°C 85% 1.0 mph NW1.6 kmh NW 3.0 mph4.8 kmh 29.96 in1014.6 mb 0.00 in0.0 mm 0.00 in0.0 mm 0.27 in6.9 mm
08:25 PM 57.2°F14.0°C 53.0°F11.7°C 86% 1.0 mph NW1.6 kmh NW 3.0 mph4.8 kmh 29.96 in1014.6 mb 0.00 in0.0 mm 0.00 in0.0 mm 0.27 in6.9 mm
08:30 PM 57.1°F13.9°C 53.0°F11.7°C 86% 1.0 mph NW1.6 kmh NW 3.0 mph4.8 kmh 29.96 in1014.6 mb 0.00 in0.0 mm 0.00 in0.0 mm 0.27 in6.9 mm
08:35 PM 57.0°F13.9°C 52.9°F11.6°C 86% Calm Calm 3.0 mph4.8 kmh 29.97 in1014.9 mb 0.00 in0.0 mm 0.00 in0.0 mm 0.27 in6.9 mm
08:40 PM 56.9°F13.8°C 52.8°F11.6°C 86% Calm Calm -- 29.96 in1014.6 mb 0.00 in0.0 mm 0.00 in0.0 mm 0.27 in6.9 mm
08:45 PM 56.8°F13.8°C 52.7°F11.5°C 86% Calm Calm -- 29.97 in1014.9 mb 0.00 in0.0 mm 0.00 in0.0 mm 0.27 in6.9 mm
08:50 PM 56.7°F13.7°C 52.6°F11.4°C 86% Calm Calm -- 29.97 in1014.9 mb 0.00 in0.0 mm 0.00 in0.0 mm 0.27 in6.9 mm
08:55 PM 56.4°F13.6°C 52.3°F11.3°C 86% Calm Calm -- 29.97 in1014.9 mb 0.00 in0.0 mm 0.00 in0.0 mm 0.27 in6.9 mm
09:00 PM 56.1°F13.4°C 52.0°F11.1°C 86% Calm Calm -- 29.97 in1014.9 mb 0.00 in0.0 mm 0.00 in0.0 mm 0.27 in6.9 mm
09:05 PM 55.9°F13.3°C 52.1°F11.2°C 87% Calm Calm -- 29.97 in1014.9 mb 0.00 in0.0 mm 0.00 in0.0 mm 0.27 in6.9 mm
09:10 PM 55.7°F13.2°C 51.9°F11.1°C 87% Calm Calm -- 29.97 in1014.9 mb 0.00 in0.0 mm 0.00 in0.0 mm 0.27 in6.9 mm
09:15 PM 55.4°F13.0°C 51.6°F10.9°C 87% Calm Calm -- 29.97 in1014.9 mb 0.00 in0.0 mm 0.00 in0.0 mm 0.27 in6.9 mm
09:20 PM 55.3°F12.9°C 51.8°F11.0°C 88% Calm Calm -- 29.98 in1015.2 mb 0.00 in0.0 mm 0.00 in0.0 mm 0.27 in6.9 mm
09:25 PM 55.0°F12.8°C 51.5°F10.8°C 88% Calm Calm -- 29.98 in1015.2 mb 0.00 in0.0 mm 0.00 in0.0 mm 0.27 in6.9 mm
09:30 PM 54.7°F12.6°C 50.9°F10.5°C 87% Calm Calm -- 29.98 in1015.2 mb 0.00 in0.0 mm 0.00 in0.0 mm 0.27 in6.9 mm
09:35 PM 54.4°F12.4°C 50.6°F10.3°C 87% Calm Calm -- 29.98 in1015.2 mb 0.00 in0.0 mm 0.00 in0.0 mm 0.27 in6.9 mm
09:40 PM 54.1°F12.3°C 50.3°F10.2°C 87% Calm Calm -- 29.98 in1015.2 mb 0.00 in0.0 mm 0.00 in0.0 mm 0.27 in6.9 mm
09:45 PM 53.8°F12.1°C 50.3°F10.2°C 88% Calm Calm -- 29.98 in1015.2 mb 0.00 in0.0 mm 0.00 in0.0 mm 0.27 in6.9 mm
09:50 PM 53.5°F11.9°C 50.0°F10.0°C 88% Calm Calm -- 29.98 in1015.2 mb 0.00 in0.0 mm 0.00 in0.0 mm 0.27 in6.9 mm
09:55 PM 53.3°F11.8°C 50.1°F10.1°C 89% Calm Calm -- 29.98 in1015.2 mb 0.00 in0.0 mm 0.00 in0.0 mm 0.27 in6.9 mm
10:00 PM 53.2°F11.8°C 50.0°F10.0°C 89% Calm Calm -- 29.98 in1015.2 mb 0.00 in0.0 mm 0.00 in0.0 mm 0.27 in6.9 mm
10:05 PM 53.0°F11.7°C 50.1°F10.1°C 90% Calm Calm -- 29.98 in1015.2 mb 0.00 in0.0 mm 0.00 in0.0 mm 0.27 in6.9 mm
10:10 PM 52.9°F11.6°C 50.0°F10.0°C 90% Calm Calm -- 29.98 in1015.2 mb 0.00 in0.0 mm 0.00 in0.0 mm 0.27 in6.9 mm
10:15 PM 52.6°F11.4°C 49.8°F9.9°C 90% Calm Calm -- 29.98 in1015.2 mb 0.00 in0.0 mm 0.00 in0.0 mm 0.27 in6.9 mm
10:20 PM 52.5°F11.4°C 49.7°F9.8°C 90% Calm Calm -- 29.98 in1015.2 mb 0.00 in0.0 mm 0.00 in0.0 mm 0.27 in6.9 mm
10:25 PM 52.3°F11.3°C 49.5°F9.7°C 90% Calm Calm -- 29.98 in1015.2 mb 0.00 in0.0 mm 0.00 in0.0 mm 0.27 in6.9 mm
10:30 PM 52.1°F11.2°C 49.3°F9.6°C 90% Calm Calm -- 29.98 in1015.2 mb 0.00 in0.0 mm 0.00 in0.0 mm 0.27 in6.9 mm
10:35 PM 52.1°F11.2°C 49.6°F9.8°C 91% Calm Calm -- 29.99 in1015.6 mb 0.00 in0.0 mm 0.00 in0.0 mm 0.27 in6.9 mm
10:40 PM 52.0°F11.1°C 49.5°F9.7°C 91% Calm Calm -- 29.99 in1015.6 mb 0.00 in0.0 mm 0.00 in0.0 mm 0.27 in6.9 mm
10:45 PM 51.9°F11.1°C 49.4°F9.7°C 91% Calm Calm -- 29.99 in1015.6 mb 0.00 in0.0 mm 0.00 in0.0 mm 0.27 in6.9 mm
10:50 PM 51.7°F10.9°C 49.2°F9.6°C 91% Calm Calm -- 30.00 in1015.9 mb 0.00 in0.0 mm 0.00 in0.0 mm 0.27 in6.9 mm
10:55 PM 51.5°F10.8°C 49.0°F9.4°C 91% Calm Calm -- 30.00 in1015.9 mb 0.00 in0.0 mm 0.00 in0.0 mm 0.27 in6.9 mm
11:00 PM 51.4°F10.8°C 48.9°F9.4°C 91% Calm Calm -- 30.00 in1015.9 mb 0.00 in0.0 mm 0.00 in0.0 mm 0.27 in6.9 mm
11:05 PM 51.2°F10.7°C 48.7°F9.3°C 91% Calm Calm -- 30.00 in1015.9 mb 0.00 in0.0 mm 0.00 in0.0 mm 0.27 in6.9 mm
11:10 PM 51.0°F10.6°C 48.5°F9.2°C 91% Calm Calm -- 30.00 in1015.9 mb 0.00 in0.0 mm 0.00 in0.0 mm 0.27 in6.9 mm
11:15 PM 50.9°F10.5°C 48.4°F9.1°C 91% Calm Calm -- 30.00 in1015.9 mb 0.00 in0.0 mm 0.00 in0.0 mm 0.27 in6.9 mm
11:20 PM 50.8°F10.4°C 48.3°F9.1°C 91% Calm Calm -- 30.01 in1016.3 mb 0.00 in0.0 mm 0.00 in0.0 mm 0.27 in6.9 mm
11:25 PM 50.7°F10.4°C 48.2°F9.0°C 91% Calm Calm -- 30.00 in1015.9 mb 0.00 in0.0 mm 0.00 in0.0 mm 0.27 in6.9 mm
11:30 PM 50.6°F10.3°C 48.1°F8.9°C 91% Calm Calm -- 30.01 in1016.3 mb 0.00 in0.0 mm 0.00 in0.0 mm 0.27 in6.9 mm
11:35 PM 50.5°F10.3°C 48.0°F8.9°C 91% Calm Calm -- 30.00 in1015.9 mb 0.00 in0.0 mm 0.00 in0.0 mm 0.27 in6.9 mm
11:40 PM 50.4°F10.2°C 47.9°F8.8°C 91% Calm Calm -- 30.00 in1015.9 mb 0.00 in0.0 mm 0.00 in0.0 mm 0.27 in6.9 mm
11:45 PM 50.3°F10.2°C 48.1°F8.9°C 92% Calm Calm -- 30.00 in1015.9 mb 0.00 in0.0 mm 0.00 in0.0 mm 0.27 in6.9 mm
11:50 PM 50.2°F10.1°C 48.0°F8.9°C 92% Calm Calm -- 30.00 in1015.9 mb 0.00 in0.0 mm 0.00 in0.0 mm 0.27 in6.9 mm
11:55 PM 50.1°F10.1°C 47.9°F8.8°C 92% Calm Calm -- 30.00 in1015.9 mb 0.00 in0.0 mm 0.00 in0.0 mm 0.27 in6.9 mm